Terminal Aerodrome Forecast
Issued by NWS

Home | Current Version | Previous Version | Text Only | Print | Product List | Glossary Off
Versions: 1 2 3 4 5 6 7 8 9 10 11 12 13

655
FTUS43 KICT 211135
TAFRSL
TAF
KRSL 211135Z 2112/2212 19015KT P6SM FEW100
     FM211500 19015G22KT P6SM SKC
     FM220000 18012KT P6SM SKC=

USA.gov is the U.S. government's official web portal to all federal, state and local government web resources and services.